Time;durP1;ratioP1;P1;durP2;ratioP2;P2;SDS_P1;SDS_P2;PMS_P1;PMS_P2;Temp;Humidity;BMP_temperature;BMP_pressure;BME280_temperature;BME280_humidity;BME280_pressure;Samples;Min_cycle;Max_cycle;Signal;HPM_P1;HPM_P2
2023/03/18 00:00:22;;;;;;;7.72;5.60;;;;;;;9.24;49.74;100514.34;7396048;19;20074;-68
2023/03/18 00:02:51;;;;;;;8.30;5.65;;;;;;;9.22;50.48;100513.50;7395349;19;20506;-68
2023/03/18 00:05:20;;;;;;;13.70;6.65;;;;;;;9.22;50.45;100522.22;7396090;19;20035;-68
2023/03/18 00:07:49;;;;;;;12.00;6.35;;;;;;;9.21;50.18;100517.00;7395571;19;20014;-68
2023/03/18 00:10:25;;;;;;;9.23;6.05;;;;;;;9.19;49.33;100505.72;7396054;19;20070;-68
2023/03/18 00:12:56;;;;;;;11.13;6.38;;;;;;;9.16;48.85;100506.63;7395443;19;20010;-68
2023/03/18 00:15:25;;;;;;;12.63;6.18;;;;;;;9.16;50.02;100495.31;7395964;19;20018;-67
2023/03/18 00:17:53;;;;;;;10.52;6.03;;;;;;;9.16;50.04;100511.84;7395771;19;20090;-67
2023/03/18 00:20:27;;;;;;;10.90;6.05;;;;;;;9.15;49.96;100504.03;7395144;19;20018;-67
2023/03/18 00:22:57;;;;;;;7.70;5.03;;;;;;;9.14;50.18;100508.41;7395528;19;20037;-68
2023/03/18 00:25:32;;;;;;;9.38;5.80;;;;;;;9.12;50.01;100507.56;7393741;19;20011;-68
2023/03/18 00:28:09;;;;;;;12.15;6.13;;;;;;;9.10;47.98;100502.38;7395651;19;20059;-68
2023/03/18 00:30:40;;;;;;;9.85;5.43;;;;;;;9.09;49.68;100510.28;7395850;19;20079;-68
2023/03/18 00:33:09;;;;;;;10.77;6.28;;;;;;;9.08;48.79;100503.31;7395020;19;20022;-68
2023/03/18 00:35:38;;;;;;;10.70;6.03;;;;;;;9.06;50.10;100502.47;7395182;19;20018;-68
2023/03/18 00:38:08;;;;;;;10.57;6.07;;;;;;;9.04;50.21;100504.25;7395147;19;20022;-68
2023/03/18 00:40:52;;;;;;;8.25;5.38;;;;;;;9.04;50.01;100496.41;7394463;19;20015;-68
2023/03/18 00:43:28;;;;;;;12.90;5.93;;;;;;;9.02;49.94;100496.41;7393617;19;20070;-67
2023/03/18 00:45:58;;;;;;;10.68;6.25;;;;;;;9.00;50.12;100495.59;7395142;19;20361;-68
2023/03/18 00:48:28;;;;;;;13.95;6.40;;;;;;;8.96;49.95;100494.78;7395356;19;20074;-68
2023/03/18 00:50:57;;;;;;;12.85;6.75;;;;;;;8.97;50.08;100495.66;7395191;19;20018;-68
2023/03/18 00:53:25;;;;;;;12.70;7.15;;;;;;;8.96;50.00;100496.56;7394038;19;20077;-68
2023/03/18 00:55:54;;;;;;;9.40;6.30;;;;;;;8.93;49.21;100497.47;7402274;19;20014;-68
2023/03/18 00:58:25;;;;;;;11.10;6.38;;;;;;;8.92;49.40;100494.88;7401906;19;20493;-68
2023/03/18 01:00:54;;;;;;;9.90;5.75;;;;;;;8.91;49.99;100496.63;7401460;19;20010;-68
2023/03/18 01:03:24;;;;;;;11.15;6.70;;;;;;;8.89;50.12;100487.09;7400615;19;20080;-68
2023/03/18 01:05:53;;;;;;;11.05;6.13;;;;;;;8.88;50.10;100496.69;7399433;19;20022;-68
2023/03/18 01:08:21;;;;;;;12.85;6.70;;;;;;;8.86;49.94;100493.25;7399121;19;20010;-68
2023/03/18 01:10:50;;;;;;;9.68;6.20;;;;;;;8.87;50.07;100502.81;7401840;19;20018;-68
2023/03/18 01:13:19;;;;;;;12.25;6.38;;;;;;;8.85;50.20;100493.28;7400755;19;20019;-68
2023/03/18 01:15:50;;;;;;;10.50;5.97;;;;;;;8.84;49.50;100481.94;7401696;19;20038;-68
2023/03/18 01:18:19;;;;;;;7.68;5.78;;;;;;;8.85;50.20;100486.28;7402086;19;20078;-68
2023/03/18 01:20:48;;;;;;;10.63;5.60;;;;;;;8.84;50.57;100492.41;7400348;19;20376;-69
2023/03/18 01:23:16;;;;;;;13.18;6.38;;;;;;;8.82;50.55;100496.81;7400437;19;20074;-67
2023/03/18 01:25:45;;;;;;;7.43;5.07;;;;;;;8.83;50.44;100485.44;7399935;19;20011;-67
2023/03/18 01:28:14;;;;;;;8.73;6.13;;;;;;;8.82;50.22;100486.34;7401272;19;20046;-67
2023/03/18 01:30:43;;;;;;;9.05;5.47;;;;;;;8.80;50.54;100493.34;7401210;19;20014;-67
2023/03/18 01:33:14;;;;;;;10.75;6.53;;;;;;;8.80;49.66;100494.22;7400197;19;20019;-67
2023/03/18 01:35:45;;;;;;;11.10;6.28;;;;;;;8.79;50.38;100489.00;7400730;19;20015;-67
2023/03/18 01:38:14;;;;;;;10.25;5.72;;;;;;;8.79;50.07;100487.25;7401176;19;20045;-67
2023/03/18 01:40:44;;;;;;;8.90;6.00;;;;;;;8.77;50.07;100488.16;7400242;19;20021;-66
2023/03/18 01:43:19;;;;;;;10.52;6.32;;;;;;;8.76;49.24;100494.31;7399955;19;20010;-67
2023/03/18 01:45:51;;;;;;;12.00;6.20;;;;;;;8.74;49.85;100494.31;7400361;19;20021;-66
2023/03/18 01:48:24;;;;;;;8.90;5.60;;;;;;;8.73;49.14;100494.34;7400730;19;20021;-68
2023/03/18 01:50:58;;;;;;;10.15;5.88;;;;;;;8.73;49.94;100496.97;7401934;19;20028;-67
2023/03/18 01:53:29;;;;;;;10.30;6.05;;;;;;;8.71;50.28;100493.53;7399859;19;20018;-66
2023/03/18 01:56:00;;;;;;;9.32;5.53;;;;;;;8.69;50.06;100506.63;7400199;19;20442;-67
2023/03/18 01:58:33;;;;;;;12.88;6.32;;;;;;;8.68;49.97;100501.41;7400518;19;20018;-67
2023/03/18 02:01:06;;;;;;;9.93;6.13;;;;;;;8.66;49.69;100501.47;7399173;19;20027;-68
2023/03/18 02:03:38;;;;;;;10.30;6.00;;;;;;;8.63;49.73;100512.84;7399286;19;20022;-67
2023/03/18 02:06:07;;;;;;;10.30;5.75;;;;;;;8.63;50.21;100506.72;7395437;19;20019;-67
2023/03/18 02:08:35;;;;;;;9.23;5.30;;;;;;;8.62;50.00;100498.03;7400012;19;20525;-67
2023/03/18 02:11:05;;;;;;;9.43;5.55;;;;;;;8.61;50.30;100504.16;7399845;19;20081;-68
2023/03/18 02:13:33;;;;;;;8.88;6.00;;;;;;;8.61;50.09;100498.06;7397280;19;20014;-66
2023/03/18 02:16:06;;;;;;;8.98;5.50;;;;;;;8.59;49.42;100498.09;7399728;19;20014;-66
2023/03/18 02:18:42;;;;;;;10.48;6.13;;;;;;;8.59;49.69;100508.56;7397738;19;20022;-66
2023/03/18 02:21:23;;;;;;;11.10;6.03;;;;;;;8.58;49.21;100505.94;7398394;19;20490;-66
2023/03/18 02:24:00;;;;;;;10.85;6.78;;;;;;;8.52;49.74;100499.09;7398760;19;20021;-67
2023/03/18 02:26:37;;;;;;;9.55;6.00;;;;;;;8.54;49.01;100501.66;7397397;19;20430;-66
2023/03/18 02:29:09;;;;;;;10.48;5.28;;;;;;;8.53;49.92;100489.47;7398921;19;20019;-66
2023/03/18 02:31:38;;;;;;;10.38;6.15;;;;;;;8.52;49.80;100483.41;7397531;19;20022;-67
2023/03/18 02:34:08;;;;;;;7.60;5.78;;;;;;;8.48;49.41;100487.81;7397100;19;20021;-67
2023/03/18 02:36:37;;;;;;;12.57;5.63;;;;;;;8.48;50.11;100481.72;7398981;19;20014;-67
2023/03/18 02:39:07;;;;;;;12.32;5.65;;;;;;;8.47;49.99;100477.38;7396264;19;20492;-70
2023/03/18 02:41:37;;;;;;;8.82;5.72;;;;;;;8.47;50.13;100485.22;7398211;19;20022;-67
2023/03/18 02:44:08;;;;;;;11.68;5.78;;;;;;;8.45;49.58;100490.47;7397328;19;20018;-67
2023/03/18 02:46:49;;;;;;;10.55;5.28;;;;;;;8.45;48.97;100495.69;7399209;19;20074;-67
2023/03/18 02:49:20;;;;;;;10.88;5.68;;;;;;;8.44;49.82;100495.69;7399069;19;20070;-67
2023/03/18 02:51:49;;;;;;;8.50;5.32;;;;;;;8.46;50.20;100501.78;7398984;19;20010;-67
2023/03/18 02:54:21;;;;;;;7.72;5.05;;;;;;;8.48;49.61;100502.66;7396316;19;20038;-66
2023/03/18 02:56:50;;;;;;;16.00;6.03;;;;;;;8.48;50.19;100495.66;7397951;19;20494;-67
2023/03/18 02:59:22;;;;;;;8.77;5.55;;;;;;;8.47;49.68;100500.91;7398297;19;20019;-67
2023/03/18 03:01:53;;;;;;;9.15;5.78;;;;;;;8.47;50.35;100499.16;7396747;19;20021;-67
2023/03/18 03:04:25;;;;;;;10.65;6.03;;;;;;;8.46;50.35;100499.19;7396566;19;20086;-67
2023/03/18 03:06:54;;;;;;;9.05;5.10;;;;;;;8.45;50.07;100497.41;7396112;19;20033;-67
2023/03/18 03:09:23;;;;;;;8.30;5.28;;;;;;;8.45;50.38;100505.25;7395971;19;20018;-67
2023/03/18 03:11:52;;;;;;;8.40;5.47;;;;;;;8.44;49.97;100506.16;7397560;19;20034;-67
2023/03/18 03:14:23;;;;;;;10.52;5.78;;;;;;;8.42;49.90;100500.09;7396086;19;20023;-66
2023/03/18 03:16:51;;;;;;;11.88;5.78;;;;;;;8.41;50.04;100501.84;7397187;19;20035;-66
2023/03/18 03:19:20;;;;;;;8.48;5.57;;;;;;;8.41;50.23;100500.97;7397529;19;20022;-66
2023/03/18 03:21:48;;;;;;;11.43;5.45;;;;;;;8.39;50.34;100497.53;7396623;19;20019;-67
2023/03/18 03:24:17;;;;;;;7.82;5.50;;;;;;;8.39;50.36;100502.75;7395879;19;20078;-67
2023/03/18 03:26:45;;;;;;;10.77;5.38;;;;;;;8.37;50.34;100505.41;7395448;19;20412;-67
2023/03/18 03:29:14;;;;;;;10.68;5.68;;;;;;;8.37;50.41;100501.94;7397149;19;20022;-67
2023/03/18 03:31:45;;;;;;;8.57;5.57;;;;;;;8.35;50.16;100507.16;7395397;19;20038;-65
2023/03/18 03:34:13;;;;;;;7.75;5.68;;;;;;;8.34;50.60;100513.31;7395423;19;20024;-69
2023/03/18 03:36:42;;;;;;;9.48;5.30;;;;;;;8.32;50.30;100515.06;7397033;19;20074;-69
2023/03/18 03:39:11;;;;;;;11.20;5.53;;;;;;;8.30;50.31;100509.88;7394735;19;20517;-70
2023/03/18 03:41:39;;;;;;;8.73;5.25;;;;;;;8.28;50.78;100518.63;7396268;19;20022;-69
2023/03/18 03:44:08;;;;;;;11.82;5.65;;;;;;;8.25;50.73;100513.44;7395186;19;20010;-69
2023/03/18 03:46:36;;;;;;;9.93;5.40;;;;;;;8.23;50.80;100510.00;7395095;19;20018;-69
2023/03/18 03:49:08;;;;;;;6.97;4.90;;;;;;;8.15;50.84;100513.59;7396749;19;20042;-69
2023/03/18 03:51:36;;;;;;;7.40;5.20;;;;;;;8.18;50.99;100514.44;7396962;19;20015;-69
2023/03/18 03:54:05;;;;;;;12.95;5.57;;;;;;;8.14;51.17;100518.84;7395316;19;20021;-69
2023/03/18 03:56:33;;;;;;;11.02;5.80;;;;;;;8.11;51.29;100527.59;7396444;19;20102;-69
2023/03/18 03:59:03;;;;;;;8.63;5.43;;;;;;;8.06;51.00;100532.03;7395997;19;20549;-69
2023/03/18 04:01:33;;;;;;;10.48;5.75;;;;;;;8.03;51.37;100525.97;7396227;19;20054;-69
2023/03/18 04:04:02;;;;;;;8.55;5.32;;;;;;;7.99;51.43;100530.38;7395069;19;20019;-69
2023/03/18 04:06:33;;;;;;;8.13;5.47;;;;;;;7.96;50.58;100526.06;7396086;19;20023;-69
2023/03/18 04:09:02;;;;;;;11.48;5.20;;;;;;;7.93;51.77;100525.25;7395732;19;20486;-69
2023/03/18 04:11:31;;;;;;;8.15;5.35;;;;;;;7.88;51.44;100533.13;7395972;19;20017;-69
2023/03/18 04:13:59;;;;;;;10.07;5.95;;;;;;;7.85;51.66;100533.19;7394126;19;20022;-69
2023/03/18 04:16:28;;;;;;;10.05;5.97;;;;;;;7.82;51.78;100535.81;7393796;19;20035;-69
2023/03/18 04:18:56;;;;;;;9.15;5.68;;;;;;;7.80;51.70;100527.16;7395785;19;20033;-69
2023/03/18 04:21:26;;;;;;;8.15;5.50;;;;;;;7.78;51.99;100536.75;7395348;19;20011;-69
2023/03/18 04:23:57;;;;;;;8.68;5.43;;;;;;;7.75;51.73;100542.03;7394509;19;20018;-69
2023/03/18 04:26:27;;;;;;;8.68;5.30;;;;;;;7.73;51.87;100543.78;7394937;19;20070;-69
2023/03/18 04:28:55;;;;;;;9.00;5.68;;;;;;;7.71;52.08;100545.53;7391971;19;20374;-69
2023/03/18 04:31:24;;;;;;;9.45;5.57;;;;;;;7.67;52.50;100539.50;7395355;19;20079;-69
2023/03/18 04:33:52;;;;;;;9.38;5.60;;;;;;;7.65;52.04;100549.13;7394272;19;20018;-70
2023/03/18 04:36:21;;;;;;;10.30;5.28;;;;;;;7.60;52.60;100546.56;7395174;19;20366;-69
2023/03/18 04:38:49;;;;;;;14.48;5.95;;;;;;;7.61;52.63;100556.13;7395976;19;20031;-69
2023/03/18 04:41:20;;;;;;;8.35;5.20;;;;;;;7.58;52.74;100547.47;7394543;19;20544;-69
2023/03/18 04:43:49;;;;;;;10.85;5.10;;;;;;;7.57;52.71;100548.34;7394264;19;20018;-69
2023/03/18 04:46:17;;;;;;;10.60;5.97;;;;;;;7.53;52.69;100550.13;7394960;19;20050;-69
2023/03/18 04:48:46;;;;;;;8.07;4.88;;;;;;;7.50;53.06;100548.41;7392795;19;20014;-69
2023/03/18 04:51:14;;;;;;;8.55;5.30;;;;;;;7.48;53.25;100557.13;7395847;19;20011;-69
2023/03/18 04:53:43;;;;;;;9.93;5.43;;;;;;;7.44;53.22;100547.63;7394820;19;20017;-69
2023/03/18 04:56:12;;;;;;;10.57;6.35;;;;;;;7.40;53.42;100549.41;7395076;19;20513;-69
2023/03/18 04:58:43;;;;;;;11.73;6.15;;;;;;;7.38;53.20;100552.91;7393494;19;20091;-68
2023/03/18 05:01:12;;;;;;;7.88;5.55;;;;;;;7.31;53.57;100541.69;7394688;19;20421;-69
2023/03/18 05:03:40;;;;;;;10.48;6.65;;;;;;;7.28;53.65;100550.41;7392585;19;20019;-68
2023/03/18 05:06:10;;;;;;;9.63;6.55;;;;;;;7.26;53.43;100557.41;7394469;19;20010;-69
2023/03/18 05:08:39;;;;;;;11.18;6.65;;;;;;;7.24;53.47;100556.56;7394000;19;20014;-69
2023/03/18 05:11:07;;;;;;;8.63;5.75;;;;;;;7.20;53.87;100556.59;7392441;19;20082;-69
2023/03/18 05:13:36;;;;;;;10.85;5.93;;;;;;;7.17;54.02;100552.28;7393343;19;20021;-69
2023/03/18 05:16:08;;;;;;;10.98;7.40;;;;;;;7.15;54.31;100549.69;7394170;19;20021;-69
2023/03/18 05:18:37;;;;;;;9.48;6.43;;;;;;;7.13;54.45;100555.81;7394937;19;20378;-69
2023/03/18 05:21:06;;;;;;;10.90;6.20;;;;;;;7.10;54.47;100558.44;7393962;19;20030;-69
2023/03/18 05:23:35;;;;;;;14.80;6.72;;;;;;;7.07;54.61;100556.72;7392024;19;20355;-69
2023/03/18 05:26:04;;;;;;;9.20;6.05;;;;;;;7.06;54.82;100556.75;7393142;19;20022;-69
2023/03/18 05:28:33;;;;;;;11.45;5.82;;;;;;;7.04;54.79;100562.00;7394328;19;20014;-69
2023/03/18 05:31:02;;;;;;;9.00;5.93;;;;;;;7.02;55.00;100558.53;7393776;19;20074;-69
2023/03/18 05:33:33;;;;;;;10.48;6.47;;;;;;;7.00;54.93;100561.16;7392294;19;20019;-69
2023/03/18 05:36:02;;;;;;;10.18;5.57;;;;;;;6.98;55.24;100559.44;7391620;19;20364;-69
2023/03/18 05:38:31;;;;;;;9.68;6.32;;;;;;;6.96;55.35;100561.19;7393208;19;20018;-69
2023/03/18 05:40:59;;;;;;;14.73;8.63;;;;;;;6.94;55.34;100550.78;7394557;19;20031;-68
2023/03/18 05:43:28;;;;;;;17.13;9.70;;;;;;;6.93;55.51;100562.09;7398035;19;20382;-69
2023/03/18 05:45:56;;;;;;;16.30;7.85;;;;;;;6.92;55.67;100559.50;7400374;19;20090;-69
2023/03/18 05:48:25;;;;;;;12.40;7.28;;;;;;;6.92;55.72;100564.72;7398115;19;20014;-69
2023/03/18 05:50:57;;;;;;;11.77;6.75;;;;;;;6.92;55.75;100570.78;7400183;19;20387;-69
2023/03/18 05:53:26;;;;;;;12.02;6.63;;;;;;;6.92;55.71;100568.16;7399203;19;20378;-69
2023/03/18 05:55:55;;;;;;;11.10;6.40;;;;;;;6.91;55.77;100569.03;7400030;19;20531;-69
2023/03/18 05:58:23;;;;;;;11.35;7.00;;;;;;;6.91;55.95;100574.25;7400771;19;20027;-69
2023/03/18 06:00:52;;;;;;;10.70;6.53;;;;;;;6.91;56.08;100574.25;7400247;19;20085;-69
2023/03/18 06:03:21;;;;;;;11.13;6.22;;;;;;;6.92;55.98;100577.75;7398379;19;20022;-69
2023/03/18 06:05:49;;;;;;;10.18;6.05;;;;;;;6.93;55.84;100579.50;7400035;19;20022;-69
2023/03/18 06:08:21;;;;;;;9.80;5.57;;;;;;;6.93;55.74;100577.72;7399535;19;20078;-70
2023/03/18 06:10:57;;;;;;;9.98;5.97;;;;;;;6.94;55.91;100582.06;7400346;19;20019;-69
2023/03/18 06:13:25;;;;;;;10.57;6.05;;;;;;;6.96;55.99;100575.13;7399072;19;20105;-68
2023/03/18 06:16:02;;;;;;;12.95;6.47;;;;;;;6.97;55.99;100570.75;7399689;19;20017;-68
2023/03/18 06:18:31;;;;;;;13.85;7.57;;;;;;;6.99;56.15;100571.59;7399417;19;20486;-68
2023/03/18 06:20:59;;;;;;;10.80;6.50;;;;;;;6.99;56.19;100567.25;7399565;19;20040;-69
2023/03/18 06:23:31;;;;;;;9.90;6.38;;;;;;;7.00;55.95;100571.59;7397586;19;20081;-68
2023/03/18 06:26:00;;;;;;;9.23;6.10;;;;;;;7.04;56.45;100580.25;7399073;19;20014;-69
2023/03/18 06:28:29;;;;;;;8.88;5.43;;;;;;;7.06;56.28;100583.69;7399756;19;20019;-69
2023/03/18 06:30:58;;;;;;;8.52;6.03;;;;;;;7.06;56.44;100580.22;7398791;19;20017;-69
2023/03/18 06:33:26;;;;;;;11.50;5.70;;;;;;;7.07;56.42;100587.19;7398491;19;20018;-69
2023/03/18 06:35:56;;;;;;;11.10;5.25;;;;;;;7.10;56.61;100584.53;7398996;19;20062;-69
2023/03/18 06:38:26;;;;;;;9.65;6.03;;;;;;;7.11;56.38;100588.88;7398777;19;20040;-69
2023/03/18 06:40:57;;;;;;;8.52;5.80;;;;;;;7.12;56.07;100583.63;7398912;19;20019;-69
2023/03/18 06:43:25;;;;;;;11.95;5.95;;;;;;;7.15;56.49;100593.16;7397682;19;20094;-68
2023/03/18 06:45:54;;;;;;;7.40;5.43;;;;;;;7.15;56.54;100587.94;7398503;19;20018;-69
2023/03/18 06:48:23;;;;;;;12.63;6.00;;;;;;;7.19;56.68;100592.28;7398348;19;20025;-69
2023/03/18 06:50:53;;;;;;;12.02;6.07;;;;;;;7.21;56.58;100595.72;7396401;19;20022;-69
2023/03/18 06:53:21;;;;;;;10.18;5.85;;;;;;;7.24;56.78;100597.44;7396831;19;20078;-69
2023/03/18 06:55:50;;;;;;;11.57;6.75;;;;;;;7.25;56.88;100601.78;7398201;19;20018;-68
2023/03/18 06:58:21;;;;;;;7.97;5.97;;;;;;;7.28;56.76;100607.84;7397933;19;20481;-69
2023/03/18 07:00:50;;;;;;;8.40;5.90;;;;;;;7.30;56.66;100606.09;7397884;19;20412;-69
2023/03/18 07:03:18;;;;;;;11.20;5.55;;;;;;;7.32;56.65;100612.13;7396894;19;20037;-69
2023/03/18 07:05:47;;;;;;;14.50;6.65;;;;;;;7.34;56.85;100610.38;7398013;19;20010;-69
2023/03/18 07:08:16;;;;;;;8.73;5.90;;;;;;;7.36;57.15;100615.56;7397774;19;20038;-69
2023/03/18 07:10:45;;;;;;;8.40;5.57;;;;;;;7.37;56.95;100617.31;7397701;19;20018;-69
2023/03/18 07:13:14;;;;;;;13.13;6.60;;;;;;;7.37;57.13;100608.59;7396798;19;20433;-69
2023/03/18 07:15:45;;;;;;;7.07;5.05;;;;;;;7.40;56.86;100616.41;7397751;19;20014;-69
2023/03/18 07:18:13;;;;;;;10.82;6.03;;;;;;;7.41;57.10;100623.38;7398600;19;20023;-69
2023/03/18 07:20:42;;;;;;;6.93;5.55;;;;;;;7.40;57.29;100627.72;7395647;19;20085;-70
2023/03/18 07:23:11;;;;;;;11.65;5.65;;;;;;;7.44;57.33;100632.03;7395826;19;20018;-68
2023/03/18 07:25:40;;;;;;;11.43;6.05;;;;;;;7.44;57.22;100636.38;7397236;19;20017;-69
2023/03/18 07:28:09;;;;;;;12.52;7.45;;;;;;;7.46;57.58;100635.47;7395865;19;20011;-69
2023/03/18 07:30:38;;;;;;;14.23;6.22;;;;;;;7.48;57.86;100645.91;7397502;19;20085;-69
2023/03/18 07:33:09;;;;;;;10.13;6.10;;;;;;;7.52;57.53;100649.34;7396330;19;20025;-68
2023/03/18 07:35:39;;;;;;;9.20;5.57;;;;;;;7.52;58.03;100647.63;7396597;19;20019;-69
2023/03/18 07:38:08;;;;;;;11.13;6.05;;;;;;;7.58;58.01;100652.78;7396459;19;20370;-70
2023/03/18 07:40:36;;;;;;;9.45;5.88;;;;;;;7.62;57.96;100651.84;7394851;19;20027;-69
2023/03/18 07:43:05;;;;;;;10.45;5.95;;;;;;;7.66;57.94;100664.00;7395432;19;20427;-69
2023/03/18 07:45:34;;;;;;;7.25;5.68;;;;;;;7.71;58.29;100657.84;7396544;19;20021;-68
2023/03/18 07:48:02;;;;;;;9.23;6.05;;;;;;;7.75;58.40;100656.94;7396533;19;20015;-68
2023/03/18 07:50:34;;;;;;;11.95;6.32;;;;;;;7.79;58.38;100651.66;7396505;19;20066;-68
2023/03/18 07:53:03;;;;;;;10.45;6.22;;;;;;;7.84;58.43;100662.06;7396149;19;20049;-68
2023/03/18 07:55:31;;;;;;;9.98;6.03;;;;;;;7.88;58.41;100650.69;7395977;19;20042;-68
2023/03/18 07:58:01;;;;;;;10.13;5.85;;;;;;;7.92;58.51;100656.72;7394419;19;20496;-68
2023/03/18 08:00:29;;;;;;;11.75;7.28;;;;;;;7.96;58.45;100667.13;7395909;19;20014;-70
2023/03/18 08:02:58;;;;;;;10.13;6.88;;;;;;;8.02;58.47;100666.19;7394889;19;20023;-69
2023/03/18 08:05:26;;;;;;;10.52;5.60;;;;;;;8.06;58.27;100661.78;7394394;19;20508;-68
2023/03/18 08:07:58;;;;;;;11.68;6.18;;;;;;;8.13;58.20;100661.69;7395563;19;20080;-69
2023/03/18 08:10:27;;;;;;;11.40;7.05;;;;;;;8.20;58.57;100654.66;7396199;19;20018;-69
2023/03/18 08:12:56;;;;;;;9.73;5.88;;;;;;;8.28;58.40;100667.59;7395189;19;20018;-69
2023/03/18 08:15:25;;;;;;;10.10;5.85;;;;;;;8.36;58.22;100670.13;7395374;19;20015;-67
2023/03/18 08:17:54;;;;;;;11.00;6.45;;;;;;;8.45;58.21;100663.03;7395558;19;20022;-68
2023/03/18 08:20:23;;;;;;;10.45;6.32;;;;;;;8.56;58.34;100668.09;7393817;19;20038;-68
2023/03/18 08:22:52;;;;;;;9.65;5.93;;;;;;;8.65;58.31;100669.72;7392895;19;20018;-68
2023/03/18 08:25:23;;;;;;;10.13;5.88;;;;;;;8.77;58.22;100666.03;7394615;19;20011;-69
2023/03/18 08:27:52;;;;;;;8.55;5.32;;;;;;;8.89;58.07;100660.63;7393556;19;20339;-70
2023/03/18 08:30:24;;;;;;;7.90;5.82;;;;;;;8.99;57.85;100657.88;7394892;19;20392;-69
2023/03/18 08:32:54;;;;;;;8.70;5.85;;;;;;;9.09;57.46;100656.84;7394496;19;20022;-69
2023/03/18 08:35:23;;;;;;;9.23;7.00;;;;;;;9.19;57.75;100657.53;7394466;19;20369;-69
2023/03/18 08:37:51;;;;;;;11.73;6.90;;;;;;;9.29;57.76;100659.94;7394528;19;20085;-69
2023/03/18 08:40:23;;;;;;;11.35;6.00;;;;;;;9.41;57.73;100660.63;7394774;19;20078;-70
2023/03/18 08:42:52;;;;;;;9.88;6.25;;;;;;;9.52;57.34;100663.06;7393759;19;20021;-70
2023/03/18 08:45:21;;;;;;;9.52;6.30;;;;;;;9.67;57.39;100669.75;7394911;19;20018;-69
2023/03/18 08:47:50;;;;;;;6.97;4.93;;;;;;;9.79;57.32;100661.66;7394353;19;20037;-70
2023/03/18 08:50:18;;;;;;;10.82;5.63;;;;;;;9.91;57.17;100664.03;7394433;19;20034;-69
2023/03/18 08:52:47;;;;;;;10.10;5.95;;;;;;;10.03;57.10;100668.16;7393665;19;20500;-69
2023/03/18 08:55:15;;;;;;;9.75;5.53;;;;;;;10.12;57.20;100667.09;7394463;19;20022;-70
2023/03/18 08:57:46;;;;;;;11.88;6.68;;;;;;;10.23;56.86;100670.34;7392514;19;20082;-68
2023/03/18 09:00:16;;;;;;;10.88;6.35;;;;;;;10.31;57.03;100671.94;7392917;19;20082;-69
2023/03/18 09:02:45;;;;;;;13.48;6.53;;;;;;;10.39;57.08;100659.56;7394002;19;20034;-69
2023/03/18 09:05:13;;;;;;;12.38;7.22;;;;;;;10.47;57.07;100670.75;7393809;19;20081;-69
2023/03/18 09:07:42;;;;;;;13.55;6.30;;;;;;;10.53;57.09;100667.97;7394202;19;20026;-69
2023/03/18 09:10:13;;;;;;;11.00;6.10;;;;;;;10.60;57.02;100673.94;7394339;19;20130;-69
2023/03/18 09:12:42;;;;;;;13.90;5.53;;;;;;;10.67;57.02;100679.94;7391693;19;20493;-69
2023/03/18 09:15:15;;;;;;;10.38;6.03;;;;;;;10.72;56.38;100684.16;7396059;19;20038;-69
2023/03/18 09:17:44;;;;;;;7.68;5.00;;;;;;;10.79;56.65;100684.03;7401717;19;20015;-69
2023/03/18 09:20:15;;;;;;;9.63;5.53;;;;;;;10.83;56.55;100697.03;7398260;19;20014;-69
2023/03/18 09:22:46;;;;;;;11.85;5.90;;;;;;;10.90;56.62;100697.75;7400653;19;20022;-68
2023/03/18 09:25:15;;;;;;;9.13;5.65;;;;;;;10.95;56.94;100692.41;7397542;19;20021;-69
2023/03/18 09:27:44;;;;;;;7.05;4.93;;;;;;;10.99;56.55;100687.03;7398091;19;20070;-68
2023/03/18 09:30:16;;;;;;;7.97;4.85;;;;;;;11.05;56.12;100691.28;7400192;19;20018;-68
2023/03/18 09:32:44;;;;;;;12.25;5.70;;;;;;;11.08;56.70;100691.19;7400670;19;20090;-68
2023/03/18 09:35:15;;;;;;;8.77;5.10;;;;;;;11.11;56.56;100685.88;7398150;19;20015;-69
2023/03/18 09:37:43;;;;;;;10.63;5.50;;;;;;;11.17;56.58;100685.72;7400432;19;20074;-69
2023/03/18 09:40:19;;;;;;;9.85;5.72;;;;;;;11.24;55.90;100689.91;7400110;19;20019;-68
2023/03/18 09:42:59;;;;;;;9.88;6.22;;;;;;;11.30;56.51;100691.53;7397300;19;22682;-73
2023/03/18 09:45:35;;;;;;;25.08;14.15;;;;;;;11.36;56.01;100687.84;7401039;19;20033;-68
2023/03/18 09:48:36;;;;;;;16.45;7.82;;;;;;;11.43;55.18;100686.81;7400019;19;20507;-68
2023/03/18 09:51:14;;;;;;;11.38;7.70;;;;;;;11.48;56.07;100694.56;7400157;19;20014;-68
2023/03/18 09:53:47;;;;;;;10.52;7.32;;;;;;;11.54;56.76;100695.25;7399181;19;20022;-68
2023/03/18 09:56:19;;;;;;;7.95;5.65;;;;;;;11.64;56.60;100700.25;7399995;19;20429;-68
2023/03/18 09:58:54;;;;;;;7.85;5.53;;;;;;;11.71;56.38;100699.22;7400530;19;20014;-68
2023/03/18 10:01:28;;;;;;;14.40;8.57;;;;;;;11.82;56.54;100705.03;7400264;19;20019;-67
2023/03/18 10:04:02;;;;;;;10.85;6.90;;;;;;;11.92;55.29;100695.13;7398610;19;20025;-69
2023/03/18 10:06:31;;;;;;;11.82;6.35;;;;;;;12.04;56.36;100692.19;7399567;19;20387;-69
2023/03/18 10:09:08;;;;;;;8.57;5.32;;;;;;;12.15;55.34;100694.50;7399277;19;20014;-69
2023/03/18 10:11:41;;;;;;;9.52;5.30;;;;;;;12.27;56.06;100695.03;7399864;19;20358;-69
2023/03/18 10:14:21;;;;;;;10.63;5.80;;;;;;;12.34;55.39;100696.59;7397756;19;20019;-69
2023/03/18 10:17:02;;;;;;;12.40;5.57;;;;;;;12.44;55.27;100698.03;7399441;19;20032;-69
2023/03/18 10:19:30;;;;;;;9.73;5.57;;;;;;;12.54;55.95;100699.47;7399211;19;20010;-69
2023/03/18 10:22:11;;;;;;;9.80;5.50;;;;;;;12.64;55.16;100704.47;7398954;19;20024;-69
2023/03/18 10:24:44;;;;;;;7.50;6.05;;;;;;;12.73;55.70;100693.66;7396440;19;20037;-69
2023/03/18 10:27:21;;;;;;;8.75;5.32;;;;;;;12.83;55.77;100689.81;7396095;19;20082;-69
2023/03/18 10:29:54;;;;;;;8.90;5.72;;;;;;;12.92;56.09;100687.81;7396637;19;20014;-69
2023/03/18 10:32:34;;;;;;;7.70;5.40;;;;;;;13.01;54.78;100690.13;7399467;19;20038;-69
2023/03/18 10:35:16;;;;;;;7.72;5.63;;;;;;;13.10;55.65;100697.72;7398686;19;20086;-69
2023/03/18 10:37:53;;;;;;;9.75;6.07;;;;;;;13.18;55.41;100693.06;7399630;19;20018;-69
2023/03/18 10:40:22;;;;;;;8.63;5.50;;;;;;;13.26;56.51;100698.06;7400156;19;20083;-69
2023/03/18 10:42:54;;;;;;;8.50;5.20;;;;;;;13.36;56.23;100698.63;7398145;19;20028;-69
2023/03/18 10:45:26;;;;;;;10.55;6.10;;;;;;;13.44;56.14;100688.69;7396925;19;20021;-69
2023/03/18 10:48:03;;;;;;;8.20;6.38;;;;;;;13.55;56.23;100690.97;7398326;19;20473;-69
2023/03/18 10:50:34;;;;;;;10.73;5.35;;;;;;;13.65;56.07;100696.78;7398942;19;20034;-70
2023/03/18 10:53:15;;;;;;;6.43;5.55;;;;;;;13.78;55.31;100695.44;7396387;19;20019;-69
2023/03/18 10:55:54;;;;;;;10.57;6.07;;;;;;;13.95;55.35;100700.09;7398695;19;20030;-69
2023/03/18 10:58:23;;;;;;;7.00;5.43;;;;;;;14.10;55.96;100696.03;7398978;19;20038;-69
2023/03/18 11:00:51;;;;;;;9.77;5.80;;;;;;;14.22;55.94;100699.16;7396303;19;20024;-69
2023/03/18 11:03:26;;;;;;;9.93;5.60;;;;;;;14.32;55.21;100696.06;7396659;19;20085;-69
2023/03/18 11:05:58;;;;;;;8.70;6.07;;;;;;;14.41;55.72;100697.50;7395465;19;20015;-70
2023/03/18 11:08:33;;;;;;;10.70;5.95;;;;;;;14.50;55.02;100691.00;7396340;19;20018;-68
2023/03/18 11:11:16;;;;;;;8.10;5.75;;;;;;;14.61;55.37;100690.59;7398589;19;20025;-69
2023/03/18 11:13:49;;;;;;;7.03;5.18;;;;;;;14.71;54.91;100697.28;7396386;19;20489;-69
2023/03/18 11:16:31;;;;;;;8.15;5.47;;;;;;;14.82;55.14;100684.50;7396004;19;20053;-69
2023/03/18 11:19:10;;;;;;;10.70;7.03;;;;;;;14.92;54.90;100687.59;7398230;19;20025;-70
2023/03/18 11:21:39;;;;;;;7.28;5.45;;;;;;;15.04;55.54;100682.72;7396234;19;20038;-69
2023/03/18 11:24:34;;;;;;;9.00;5.57;;;;;;;15.15;55.43;100681.38;7395010;19;20010;-69
2023/03/18 11:27:03;;;;;;;8.55;5.25;;;;;;;15.29;55.23;100683.44;7396332;19;20025;-69
2023/03/18 11:29:34;;;;;;;10.32;5.70;;;;;;;15.41;55.12;100676.75;7396589;19;20545;-68
2023/03/18 11:32:04;;;;;;;8.40;4.75;;;;;;;15.52;55.19;100678.97;7395199;19;20359;-70
2023/03/18 11:34:36;;;;;;;8.63;5.25;;;;;;;15.61;54.38;100682.97;7394676;19;20025;-69
2023/03/18 11:37:08;;;;;;;9.02;4.38;;;;;;;15.69;54.76;100677.34;7396483;19;20481;-69
2023/03/18 11:39:40;;;;;;;6.32;4.55;;;;;;;15.76;54.75;100677.00;7395723;19;20018;-69
2023/03/18 11:42:21;;;;;;;8.77;4.55;;;;;;;15.88;53.61;100677.41;7396586;19;20521;-69